createdAt,value
2023-05-19T00:00:17.499Z,21.54
2023-05-19T00:02:44.145Z,20.96
2023-05-19T00:05:10.796Z,20.15
2023-05-19T00:07:37.353Z,21.51
2023-05-19T00:10:03.880Z,20.98
2023-05-19T00:12:30.422Z,21.73
2023-05-19T00:14:57.063Z,22.04
2023-05-19T00:17:23.669Z,22.31
2023-05-19T00:19:50.233Z,19.72
2023-05-19T00:22:16.918Z,19.90
2023-05-19T00:24:43.599Z,20.69
2023-05-19T00:27:10.128Z,19.69
2023-05-19T00:29:36.734Z,20.77
2023-05-19T00:32:03.394Z,20.86
2023-05-19T00:34:31.076Z,21.53
2023-05-19T00:36:57.609Z,20.90
2023-05-19T00:39:24.099Z,19.90
2023-05-19T00:41:50.815Z,20.61
2023-05-19T00:44:17.468Z,19.17
2023-05-19T00:46:44.090Z,20.29
2023-05-19T00:49:10.708Z,19.81
2023-05-19T00:51:37.235Z,19.18
2023-05-19T00:54:03.767Z,20.67
2023-05-19T00:56:30.350Z,20.97
2023-05-19T00:58:56.934Z,20.34
2023-05-19T01:01:23.516Z,20.60
2023-05-19T01:03:50.205Z,18.72
2023-05-19T01:06:16.744Z,20.38
2023-05-19T01:08:43.248Z,19.28
2023-05-19T01:11:09.903Z,19.81
2023-05-19T01:13:36.670Z,19.44
2023-05-19T01:16:03.432Z,18.36
2023-05-19T01:18:30.068Z,19.47
2023-05-19T01:20:56.613Z,18.44
2023-05-19T01:23:23.118Z,18.58
2023-05-19T01:25:49.672Z,20.59
2023-05-19T01:28:16.224Z,18.52
2023-05-19T01:30:42.755Z,19.03
2023-05-19T01:33:09.404Z,17.41
2023-05-19T01:35:35.971Z,18.43
2023-05-19T01:38:02.572Z,19.89
2023-05-19T01:40:29.289Z,19.84
2023-05-19T01:42:57.502Z,19.61
2023-05-19T01:45:24.260Z,20.36
2023-05-19T01:47:50.839Z,19.28
2023-05-19T01:50:17.381Z,18.79
2023-05-19T01:52:43.993Z,17.64
2023-05-19T01:55:10.546Z,19.26
2023-05-19T01:57:37.112Z,19.01
2023-05-19T02:00:03.645Z,18.97
2023-05-19T02:02:30.225Z,19.39
2023-05-19T02:04:56.781Z,18.19
2023-05-19T02:07:23.314Z,19.66
2023-05-19T02:09:49.897Z,18.76
2023-05-19T02:12:16.545Z,19.76
2023-05-19T02:14:43.150Z,19.62
2023-05-19T02:17:09.740Z,17.89
2023-05-19T02:19:36.251Z,18.95
2023-05-19T02:22:02.823Z,19.17
2023-05-19T02:24:29.419Z,17.67
2023-05-19T02:26:55.890Z,18.82
2023-05-19T02:29:22.577Z,18.52
2023-05-19T02:31:49.161Z,18.18
2023-05-19T02:34:15.750Z,18.51
2023-05-19T02:36:42.335Z,18.88
2023-05-19T02:39:08.903Z,18.35
2023-05-19T02:41:35.503Z,17.68
2023-05-19T02:44:02.152Z,18.10
2023-05-19T02:46:28.874Z,17.62
2023-05-19T02:48:55.379Z,18.53
2023-05-19T02:51:21.884Z,18.15
2023-05-19T02:53:48.538Z,18.59
2023-05-19T02:56:15.146Z,18.19
2023-05-19T02:58:41.788Z,18.19
2023-05-19T03:01:08.311Z,16.99
2023-05-19T03:03:35.036Z,18.19
2023-05-19T03:06:01.721Z,17.62
2023-05-19T03:08:28.269Z,17.75
2023-05-19T03:10:54.797Z,17.51
2023-05-19T03:13:21.380Z,18.14
2023-05-19T03:15:50.923Z,17.53
2023-05-19T03:18:17.528Z,16.82
2023-05-19T03:20:44.065Z,17.93
2023-05-19T03:23:12.775Z,18.36
2023-05-19T03:25:39.291Z,18.77
2023-05-19T03:28:05.870Z,18.20
2023-05-19T03:30:32.813Z,16.39
2023-05-19T03:32:59.634Z,18.21
2023-05-19T03:35:26.279Z,18.02
2023-05-19T03:37:52.809Z,16.76
2023-05-19T03:40:19.352Z,17.69
2023-05-19T03:42:45.955Z,16.84
2023-05-19T03:45:12.485Z,18.09
2023-05-19T03:47:39.095Z,17.85
2023-05-19T03:50:05.745Z,17.88
2023-05-19T03:52:32.351Z,17.98
2023-05-19T03:55:01.782Z,17.15
2023-05-19T03:57:28.372Z,17.60
2023-05-19T03:59:54.986Z,19.05
2023-05-19T04:02:21.660Z,18.49
2023-05-19T04:04:48.261Z,17.31
2023-05-19T04:07:14.811Z,17.59
2023-05-19T04:09:41.380Z,18.28
2023-05-19T04:12:07.913Z,17.81
2023-05-19T04:14:34.529Z,18.09
2023-05-19T04:17:01.129Z,16.78
2023-05-19T04:19:27.862Z,16.90
2023-05-19T04:21:54.627Z,17.85
2023-05-19T04:24:21.283Z,18.09
2023-05-19T04:26:48.889Z,17.74
2023-05-19T04:29:15.477Z,17.58
2023-05-19T04:31:42.156Z,15.92
2023-05-19T04:34:08.844Z,18.10
2023-05-19T04:36:35.418Z,16.15
2023-05-19T04:39:01.929Z,16.89
2023-05-19T04:41:28.464Z,17.81
2023-05-19T04:43:55.051Z,17.07
2023-05-19T04:46:21.629Z,18.89
2023-05-19T04:48:51.210Z,17.84
2023-05-19T04:51:17.805Z,16.91
2023-05-19T04:53:44.307Z,15.96
2023-05-19T04:56:10.772Z,17.17
2023-05-19T04:58:37.751Z,16.92
2023-05-19T05:01:05.251Z,17.43
2023-05-19T05:03:31.986Z,17.29
2023-05-19T05:05:58.558Z,16.41
2023-05-19T05:08:28.102Z,17.05
2023-05-19T05:10:57.428Z,18.49
2023-05-19T05:13:24.033Z,19.01
2023-05-19T05:15:50.639Z,20.43
2023-05-19T05:18:17.220Z,21.76
2023-05-19T05:20:43.736Z,20.59
2023-05-19T05:23:10.246Z,21.09
2023-05-19T05:25:36.874Z,20.71
2023-05-19T05:28:03.462Z,23.46
2023-05-19T05:30:30.038Z,22.65
2023-05-19T05:32:56.713Z,22.53
2023-05-19T05:35:23.365Z,22.71
2023-05-19T05:37:49.959Z,24.16
2023-05-19T05:40:16.478Z,24.40
2023-05-19T05:42:43.056Z,22.41
2023-05-19T05:45:09.650Z,21.59
2023-05-19T05:47:36.231Z,21.73
2023-05-19T05:50:02.814Z,22.04
2023-05-19T05:52:29.345Z,22.65
2023-05-19T05:54:55.845Z,24.06
2023-05-19T05:57:22.345Z,24.55
2023-05-19T05:59:48.806Z,22.59
2023-05-19T06:02:15.326Z,22.80
2023-05-19T06:04:41.962Z,23.61
2023-05-19T06:07:08.433Z,23.14
2023-05-19T06:09:34.955Z,24.44
2023-05-19T06:12:01.480Z,23.53
2023-05-19T06:14:27.965Z,23.22
2023-05-19T06:16:54.503Z,24.23
2023-05-19T06:19:21.187Z,20.75
2023-05-19T06:21:47.828Z,23.12
2023-05-19T06:24:14.428Z,21.73
2023-05-19T06:26:40.994Z,23.64
2023-05-19T06:29:07.526Z,23.91
2023-05-19T06:31:34.156Z,22.97
2023-05-19T06:34:00.736Z,22.70
2023-05-19T06:36:27.242Z,24.01
2023-05-19T06:38:53.697Z,22.84
2023-05-19T06:41:23.043Z,23.28
2023-05-19T06:43:49.644Z,23.08
2023-05-19T06:46:16.172Z,22.11
2023-05-19T06:48:42.708Z,23.00
2023-05-19T06:51:09.319Z,22.62
2023-05-19T06:53:35.813Z,21.46
2023-05-19T06:56:02.305Z,21.47
2023-05-19T06:58:28.849Z,21.54
2023-05-19T07:00:55.428Z,21.96
2023-05-19T07:03:21.987Z,23.27
2023-05-19T07:05:48.738Z,21.40
2023-05-19T07:08:15.239Z,20.51
2023-05-19T07:10:41.797Z,22.28
2023-05-19T07:13:08.302Z,23.98
2023-05-19T07:15:34.814Z,21.47
2023-05-19T07:18:01.319Z,20.94
2023-05-19T07:20:27.799Z,20.01
2023-05-19T07:22:54.253Z,21.67
2023-05-19T07:25:20.746Z,21.49
2023-05-19T07:27:47.264Z,22.53
2023-05-19T07:30:13.834Z,22.91
2023-05-19T07:32:40.475Z,23.12
2023-05-19T07:35:07.039Z,23.33
2023-05-19T07:37:33.555Z,25.16
2023-05-19T07:40:00.100Z,24.61
2023-05-19T07:42:26.773Z,32.81
2023-05-19T07:44:53.388Z,31.00
2023-05-19T07:47:20.574Z,30.11
2023-05-19T07:49:48.090Z,33.30
2023-05-19T07:52:15.719Z,33.01
2023-05-19T07:54:42.253Z,35.49
2023-05-19T07:57:10.181Z,36.00
2023-05-19T07:59:36.725Z,35.91
2023-05-19T08:02:03.305Z,37.58
2023-05-19T08:04:29.985Z,35.15
2023-05-19T08:06:56.547Z,36.01
2023-05-19T08:09:23.079Z,34.62
2023-05-19T08:11:52.454Z,34.59
2023-05-19T08:14:18.974Z,33.65
2023-05-19T08:16:45.462Z,34.62
2023-05-19T08:19:12.531Z,32.19
2023-05-19T08:21:39.179Z,32.54
2023-05-19T08:24:05.706Z,35.06
2023-05-19T08:26:32.267Z,33.97
2023-05-19T08:28:58.834Z,33.53
2023-05-19T08:31:25.517Z,36.31
2023-05-19T08:33:52.113Z,37.97
2023-05-19T08:36:18.613Z,41.75
2023-05-19T08:38:45.165Z,40.87
2023-05-19T08:41:11.705Z,40.46
2023-05-19T08:43:38.343Z,41.40
2023-05-19T08:46:04.829Z,41.20
2023-05-19T08:48:31.378Z,40.55
2023-05-19T08:50:57.930Z,41.66
2023-05-19T08:53:33.668Z,43.27
2023-05-19T08:56:00.815Z,42.43
2023-05-19T08:58:28.734Z,42.28
2023-05-19T09:00:55.488Z,38.06
2023-05-19T09:03:23.857Z,39.34
2023-05-19T09:05:50.893Z,36.33
2023-05-19T09:08:17.499Z,39.13
2023-05-19T09:10:44.074Z,37.46
2023-05-19T09:13:10.632Z,37.18
2023-05-19T09:15:37.171Z,37.41
2023-05-19T09:18:03.797Z,38.38
2023-05-19T09:20:30.377Z,35.71
2023-05-19T09:22:56.922Z,34.99
2023-05-19T09:25:23.504Z,37.24
2023-05-19T09:27:50.055Z,38.11
2023-05-19T09:30:16.652Z,37.03
2023-05-19T09:32:43.931Z,34.02
2023-05-19T09:35:10.674Z,32.98
2023-05-19T09:37:37.233Z,33.92
2023-05-19T09:40:03.821Z,35.13
2023-05-19T09:42:30.377Z,33.44
2023-05-19T09:44:56.892Z,29.68
2023-05-19T09:47:23.508Z,30.13
2023-05-19T09:49:50.071Z,31.40
2023-05-19T09:52:16.674Z,33.85
2023-05-19T09:54:43.199Z,32.08
2023-05-19T09:57:09.681Z,30.36
2023-05-19T09:59:36.175Z,31.78
2023-05-19T10:02:03.123Z,29.14
2023-05-19T10:04:29.946Z,29.76
2023-05-19T10:06:56.508Z,29.43
2023-05-19T10:09:23.072Z,36.26
2023-05-19T10:11:49.641Z,36.53
2023-05-19T10:14:16.146Z,39.29
2023-05-19T10:16:42.776Z,36.58
2023-05-19T10:19:09.410Z,41.06
2023-05-19T10:21:35.979Z,41.30
2023-05-19T10:24:02.505Z,43.28
2023-05-19T10:26:29.047Z,36.13
2023-05-19T10:28:55.599Z,32.86
2023-05-19T10:31:22.189Z,34.72
2023-05-19T10:33:48.764Z,33.48
2023-05-19T10:36:15.264Z,33.35
2023-05-19T10:38:41.838Z,34.15
2023-05-19T10:41:08.848Z,32.35
2023-05-19T10:43:35.442Z,32.82
2023-05-19T10:46:02.090Z,33.54
2023-05-19T10:48:28.634Z,31.81
2023-05-19T10:50:55.148Z,31.35
2023-05-19T10:53:21.684Z,31.75
2023-05-19T10:55:48.202Z,31.69
2023-05-19T10:58:14.780Z,32.82
2023-05-19T11:00:41.366Z,33.20
2023-05-19T11:03:07.953Z,31.06
2023-05-19T11:05:34.693Z,33.24
2023-05-19T11:08:01.417Z,31.29
2023-05-19T11:10:27.999Z,31.72
2023-05-19T11:12:54.539Z,31.25
2023-05-19T11:15:20.992Z,31.44
2023-05-19T11:17:47.518Z,31.56
2023-05-19T11:20:14.216Z,28.67
2023-05-19T11:22:40.733Z,29.05
2023-05-19T11:25:09.995Z,28.31
2023-05-19T11:27:36.568Z,29.70
2023-05-19T11:30:03.115Z,29.18
2023-05-19T11:32:29.788Z,28.84
2023-05-19T11:34:56.458Z,28.54
2023-05-19T11:37:22.939Z,28.22
2023-05-19T11:39:49.474Z,26.91
2023-05-19T11:42:15.982Z,27.56
2023-05-19T11:44:42.501Z,28.27
2023-05-19T11:47:09.058Z,29.89
2023-05-19T11:49:35.625Z,26.14
2023-05-19T11:52:02.173Z,26.77
2023-05-19T11:54:28.709Z,26.89
2023-05-19T11:56:55.761Z,25.77
2023-05-19T11:59:22.296Z,24.96
2023-05-19T12:01:48.816Z,24.82
2023-05-19T12:04:15.376Z,25.00
2023-05-19T12:06:41.971Z,25.35
2023-05-19T12:09:08.608Z,25.14
2023-05-19T12:11:35.173Z,26.82
2023-05-19T12:14:01.702Z,24.86
2023-05-19T12:16:28.229Z,26.45
2023-05-19T12:18:54.860Z,26.24
2023-05-19T12:21:21.453Z,25.38
2023-05-19T12:23:47.925Z,24.60
2023-05-19T12:26:14.456Z,24.70
2023-05-19T12:28:40.929Z,24.82
2023-05-19T12:31:07.481Z,24.72
2023-05-19T12:33:35.605Z,24.39
2023-05-19T12:36:02.523Z,26.53
2023-05-19T12:38:29.093Z,26.21
2023-05-19T12:40:55.673Z,25.30
2023-05-19T12:43:22.259Z,25.41
2023-05-19T12:45:48.929Z,24.34
2023-05-19T12:48:15.452Z,24.33
2023-05-19T12:50:42.124Z,26.28
2023-05-19T12:53:08.745Z,24.97
2023-05-19T12:55:35.250Z,25.62
2023-05-19T12:58:01.728Z,25.95
2023-05-19T13:00:28.664Z,24.88
2023-05-19T13:02:55.716Z,22.45
2023-05-19T13:05:22.388Z,24.33
2023-05-19T13:07:48.832Z,25.29
2023-05-19T13:10:15.284Z,24.26
2023-05-19T13:12:41.784Z,25.41
2023-05-19T13:15:08.361Z,24.91
2023-05-19T13:17:34.983Z,24.66
2023-05-19T13:20:01.493Z,23.61
2023-05-19T13:22:28.063Z,23.75
2023-05-19T13:24:54.569Z,23.60
2023-05-19T13:27:21.127Z,22.95
2023-05-19T13:29:47.680Z,22.14
2023-05-19T13:32:14.195Z,24.17
2023-05-19T13:34:40.911Z,24.18
2023-05-19T13:37:07.733Z,24.18
2023-05-19T13:39:34.895Z,22.88
2023-05-19T13:42:01.378Z,22.68
2023-05-19T13:44:27.837Z,22.20
2023-05-19T13:46:54.421Z,22.50
2023-05-19T13:49:20.926Z,23.23
2023-05-19T13:51:47.443Z,22.47
2023-05-19T13:54:14.019Z,22.95
2023-05-19T13:56:40.509Z,21.30
2023-05-19T13:59:07.019Z,22.77
2023-05-19T14:01:33.608Z,21.85
2023-05-19T14:04:00.993Z,21.88
2023-05-19T14:06:27.803Z,21.18
2023-05-19T14:08:54.340Z,21.88
2023-05-19T14:11:20.921Z,22.29
2023-05-19T14:13:47.416Z,22.87
2023-05-19T14:16:13.980Z,23.70
2023-05-19T14:18:40.665Z,24.14
2023-05-19T14:21:07.230Z,24.22
2023-05-19T14:23:33.778Z,22.39
2023-05-19T14:26:00.267Z,22.61
2023-05-19T14:28:26.842Z,22.75
2023-05-19T14:30:53.333Z,24.00
2023-05-19T14:33:19.825Z,23.71
2023-05-19T14:35:46.301Z,23.60
2023-05-19T14:38:12.841Z,24.30
2023-05-19T14:40:39.415Z,22.60
2023-05-19T14:43:05.939Z,24.60
2023-05-19T14:45:32.455Z,24.30
2023-05-19T14:47:59.024Z,23.29
2023-05-19T14:50:26.877Z,23.54
2023-05-19T14:52:54.340Z,22.35
2023-05-19T14:55:20.915Z,23.46
2023-05-19T14:57:47.477Z,22.80
2023-05-19T15:00:14.028Z,23.54
2023-05-19T15:02:40.624Z,22.38
2023-05-19T15:05:07.188Z,23.60
2023-05-19T15:07:33.745Z,23.69
2023-05-19T15:10:00.245Z,24.80
2023-05-19T15:12:26.753Z,21.90
2023-05-19T15:14:53.302Z,21.37
2023-05-19T15:17:19.851Z,22.83
2023-05-19T15:19:46.391Z,24.37
2023-05-19T15:22:12.875Z,22.50
2023-05-19T15:24:39.340Z,23.71
2023-05-19T15:27:05.873Z,22.95
2023-05-19T15:29:32.409Z,21.97
2023-05-19T15:31:58.935Z,23.61
2023-05-19T15:34:25.533Z,22.26
2023-05-19T15:36:52.100Z,23.69
2023-05-19T15:39:18.671Z,22.38
2023-05-19T15:41:45.213Z,26.15
2023-05-19T15:44:12.068Z,24.50
2023-05-19T15:46:38.619Z,24.46
2023-05-19T15:49:05.264Z,24.39
2023-05-19T15:51:33.045Z,25.61
2023-05-19T15:53:59.986Z,23.65
2023-05-19T15:56:26.507Z,24.21
2023-05-19T15:58:53.056Z,23.79
2023-05-19T16:01:20.206Z,24.97
2023-05-19T16:03:47.135Z,25.31
2023-05-19T16:06:13.821Z,24.59
2023-05-19T16:08:40.325Z,22.92
2023-05-19T16:11:06.834Z,26.45
2023-05-19T16:13:33.395Z,24.63
2023-05-19T16:16:00.001Z,24.99
2023-05-19T16:18:26.631Z,24.10
2023-05-19T16:20:53.178Z,25.54
2023-05-19T16:23:19.682Z,24.13
2023-05-19T16:25:46.175Z,23.27
2023-05-19T16:28:12.693Z,24.10
2023-05-19T16:30:39.161Z,23.53
2023-05-19T16:33:05.770Z,24.95
2023-05-19T16:35:32.437Z,22.92
2023-05-19T16:37:59.027Z,25.32
2023-05-19T16:40:25.602Z,27.62
2023-05-19T16:42:52.064Z,28.17
2023-05-19T16:45:18.582Z,29.87
2023-05-19T16:47:45.131Z,30.05
2023-05-19T16:50:11.681Z,30.41
2023-05-19T16:52:38.388Z,29.67
2023-05-19T16:55:04.888Z,32.72
2023-05-19T16:57:31.395Z,34.59
2023-05-19T16:59:57.977Z,30.93
2023-05-19T17:02:24.485Z,30.92
2023-05-19T17:04:51.119Z,29.92
2023-05-19T17:07:17.656Z,32.35
2023-05-19T17:09:44.154Z,29.26
2023-05-19T17:12:10.635Z,29.00
2023-05-19T17:14:37.204Z,26.77
2023-05-19T17:17:03.814Z,27.62
2023-05-19T17:19:30.413Z,27.90
2023-05-19T17:21:56.977Z,27.15
2023-05-19T17:24:23.523Z,26.29
2023-05-19T17:26:50.508Z,28.36
2023-05-19T17:29:17.333Z,29.40
2023-05-19T17:31:43.872Z,32.82
2023-05-19T17:34:10.476Z,29.56
2023-05-19T17:36:37.105Z,30.85
2023-05-19T17:39:03.610Z,30.60
2023-05-19T17:41:30.063Z,32.54
2023-05-19T17:43:56.569Z,36.05
2023-05-19T17:46:23.080Z,37.22
2023-05-19T17:48:49.570Z,38.16
2023-05-19T17:51:16.122Z,40.21
2023-05-19T17:53:42.709Z,39.22
2023-05-19T17:56:09.217Z,41.01
2023-05-19T17:58:35.768Z,42.41
2023-05-19T18:01:02.312Z,47.64
2023-05-19T18:03:29.127Z,124.52
2023-05-19T18:05:55.757Z,218.51
2023-05-19T18:08:22.308Z,172.51
2023-05-19T18:10:48.887Z,160.90
2023-05-19T18:13:15.384Z,180.75
2023-05-19T18:15:42.040Z,201.51
2023-05-19T18:18:08.624Z,205.57
2023-05-19T18:20:35.453Z,200.09
2023-05-19T18:23:02.436Z,194.65
2023-05-19T18:25:29.071Z,191.86
2023-05-19T18:27:55.713Z,180.60
2023-05-19T18:30:22.244Z,176.89
2023-05-19T18:32:48.828Z,174.34
2023-05-19T18:35:15.375Z,175.38
2023-05-19T18:37:41.877Z,176.15
2023-05-19T18:40:08.432Z,173.36
2023-05-19T18:42:35.047Z,172.57
2023-05-19T18:45:01.535Z,173.93
2023-05-19T18:47:28.074Z,171.39
2023-05-19T18:49:54.644Z,168.52
2023-05-19T18:52:21.259Z,172.00
2023-05-19T18:54:47.792Z,171.63
2023-05-19T18:57:14.301Z,164.61
2023-05-19T18:59:40.781Z,166.96
2023-05-19T19:02:07.467Z,165.99
2023-05-19T19:04:34.010Z,160.50
2023-05-19T19:07:00.547Z,162.09
2023-05-19T19:09:27.043Z,159.42
2023-05-19T19:11:53.599Z,155.46
2023-05-19T19:14:20.202Z,158.44
2023-05-19T19:16:46.794Z,156.03
2023-05-19T19:19:13.454Z,154.98
2023-05-19T19:21:40.118Z,153.46
2023-05-19T19:24:06.679Z,154.31
2023-05-19T19:26:33.198Z,152.12
2023-05-19T19:28:59.671Z,149.39
2023-05-19T19:31:26.291Z,144.98
2023-05-19T19:33:52.780Z,147.21
2023-05-19T19:36:19.343Z,145.00
2023-05-19T19:38:45.904Z,146.94
2023-05-19T19:41:12.431Z,146.14
2023-05-19T19:43:39.040Z,142.95
2023-05-19T19:46:05.611Z,146.35
2023-05-19T19:48:32.135Z,144.04
2023-05-19T19:50:58.723Z,137.24
2023-05-19T19:53:25.208Z,142.64
2023-05-19T19:55:51.763Z,138.95
2023-05-19T19:58:18.286Z,139.92
2023-05-19T20:00:44.852Z,138.29
2023-05-19T20:03:11.503Z,135.49
2023-05-19T20:05:38.006Z,133.71
2023-05-19T20:08:04.552Z,127.46
2023-05-19T20:10:31.128Z,128.41
2023-05-19T20:12:57.765Z,128.28
2023-05-19T20:15:24.341Z,124.28
2023-05-19T20:17:50.962Z,121.33
2023-05-19T20:20:17.571Z,112.13
2023-05-19T20:22:44.170Z,111.67
2023-05-19T20:25:10.766Z,110.94
2023-05-19T20:27:37.337Z,110.05
2023-05-19T20:30:03.983Z,111.16
2023-05-19T20:32:30.610Z,113.67
2023-05-19T20:34:57.180Z,113.86
2023-05-19T20:37:23.764Z,110.63
2023-05-19T20:39:50.372Z,110.47
2023-05-19T20:42:16.926Z,106.48
2023-05-19T20:44:43.649Z,111.58
2023-05-19T20:47:10.318Z,108.80
2023-05-19T20:49:36.933Z,109.84
2023-05-19T20:52:03.531Z,106.86
2023-05-19T20:54:30.123Z,104.10
2023-05-19T20:56:56.740Z,106.49
2023-05-19T20:59:23.337Z,105.44
2023-05-19T21:01:49.977Z,106.04
2023-05-19T21:04:16.587Z,108.30
2023-05-19T21:06:43.237Z,107.96
2023-05-19T21:09:09.885Z,107.09
2023-05-19T21:11:36.491Z,104.14
2023-05-19T21:14:03.124Z,105.78
2023-05-19T21:16:29.812Z,104.58
2023-05-19T21:18:56.483Z,104.88
2023-05-19T21:21:23.109Z,105.47
2023-05-19T21:23:49.688Z,101.22
2023-05-19T21:26:16.229Z,102.14
2023-05-19T21:28:42.738Z,100.23
2023-05-19T21:31:09.333Z,100.30
2023-05-19T21:33:35.927Z,104.65
2023-05-19T21:36:02.488Z,98.17
2023-05-19T21:38:29.134Z,101.45
2023-05-19T21:40:55.730Z,103.46
2023-05-19T21:43:22.330Z,101.29
2023-05-19T21:45:48.941Z,102.28
2023-05-19T21:48:15.538Z,100.04
2023-05-19T21:50:42.075Z,97.09
2023-05-19T21:53:08.582Z,94.43
2023-05-19T21:55:35.182Z,98.94
2023-05-19T21:58:02.723Z,94.74
2023-05-19T22:00:29.707Z,94.02
2023-05-19T22:02:56.534Z,95.80
2023-05-19T22:05:23.253Z,99.10
2023-05-19T22:07:49.866Z,95.91
2023-05-19T22:10:16.397Z,93.76
2023-05-19T22:12:42.921Z,97.89
2023-05-19T22:15:09.514Z,94.28
2023-05-19T22:17:36.102Z,94.57
2023-05-19T22:20:02.740Z,93.51
2023-05-19T22:22:29.288Z,96.11
2023-05-19T22:24:55.886Z,97.10
2023-05-19T22:27:22.423Z,90.19
2023-05-19T22:29:48.996Z,94.03
2023-05-19T22:32:15.607Z,91.59
2023-05-19T22:34:42.232Z,94.65
2023-05-19T22:37:08.839Z,95.68
2023-05-19T22:39:35.434Z,90.49
2023-05-19T22:42:01.964Z,91.80
2023-05-19T22:44:28.558Z,92.77
2023-05-19T22:46:55.100Z,89.80
2023-05-19T22:49:21.690Z,88.85
2023-05-19T22:51:48.267Z,88.71
2023-05-19T22:54:14.874Z,91.24
2023-05-19T22:56:41.878Z,89.71
2023-05-19T22:59:09.255Z,89.35
2023-05-19T23:01:35.831Z,87.23
2023-05-19T23:04:02.516Z,89.06
2023-05-19T23:06:29.144Z,88.07
2023-05-19T23:08:55.746Z,88.76
2023-05-19T23:11:22.336Z,85.11
2023-05-19T23:13:48.924Z,86.34
2023-05-19T23:16:15.436Z,86.70
2023-05-19T23:18:42.102Z,87.50
2023-05-19T23:21:08.669Z,85.41
2023-05-19T23:23:35.203Z,86.40
2023-05-19T23:26:01.812Z,87.92
2023-05-19T23:28:28.409Z,85.89
2023-05-19T23:30:55.047Z,82.00
2023-05-19T23:33:21.659Z,86.01
2023-05-19T23:35:48.222Z,84.55
2023-05-19T23:38:14.837Z,84.80
2023-05-19T23:40:41.392Z,85.40
2023-05-19T23:43:07.966Z,83.08
2023-05-19T23:45:34.693Z,81.49
2023-05-19T23:48:01.525Z,84.17
2023-05-19T23:50:28.195Z,82.33
2023-05-19T23:52:54.813Z,82.19
2023-05-19T23:55:21.399Z,83.71
2023-05-19T23:57:47.991Z,79.37
